Time;durP1;ratioP1;P1;durP2;ratioP2;P2;SDS_P1;SDS_P2;PMS_P1;PMS_P2;Temp;Humidity;BMP_temperature;BMP_pressure;BME280_temperature;BME280_humidity;BME280_pressure;Samples;Min_cycle;Max_cycle;Signal;HPM_P1;HPM_P2
2023/06/21 00:00:23;;;;;;;19.58;17.77;;;24.90;68.50;;;;;;4619381;55;21113;-36
2023/06/21 00:05:25;;;;;;;18.85;16.98;;;24.90;68.50;;;;;;4615935;59;21502;-36
2023/06/21 00:10:28;;;;;;;19.00;17.12;;;24.90;68.50;;;;;;4640638;55;21032;-37
2023/06/21 00:15:29;;;;;;;18.45;16.75;;;24.90;68.50;;;;;;4615510;60;21184;-35
2023/06/21 00:20:30;;;;;;;20.12;18.23;;;24.90;68.50;;;;;;4652628;55;21650;-35
2023/06/21 00:25:31;;;;;;;20.00;18.00;;;24.90;68.50;;;;;;4615686;59;21137;-36
2023/06/21 00:30:31;;;;;;;19.50;17.67;;;24.90;68.50;;;;;;4684046;55;21623;-34
2023/06/21 00:35:32;;;;;;;19.73;17.85;;;24.90;69.20;;;;;;4652435;55;21084;-35
2023/06/21 00:40:33;;;;;;;18.20;16.45;;;24.90;68.50;;;;;;4615167;59;21496;-33
2023/06/21 00:45:39;;;;;;;20.25;18.25;;;24.90;68.50;;;;;;4637239;55;21050;-35
2023/06/21 00:50:40;;;;;;;19.37;17.58;;;24.90;68.50;;;;;;4632212;56;21131;-34
2023/06/21 00:55:42;;;;;;;19.95;18.15;;;24.90;68.50;;;;;;4615494;60;21109;-37
2023/06/21 01:00:43;;;;;;;18.95;17.15;;;24.90;68.50;;;;;;4644427;56;21025;-36
2023/06/21 01:05:54;;;;;;;18.05;16.33;;;25.00;68.60;;;;;;4615730;59;21495;-36
2023/06/21 01:13:31;;;;;;;18.77;16.98;;;24.90;68.60;;;;;;4679236;56;21005;-36
2023/06/21 01:18:34;;;;;;;18.87;17.15;;;25.00;68.60;;;;;;4664980;56;21531;-36
2023/06/21 01:27:03;;;;;;;17.98;16.27;;;24.90;68.60;;;;;;4664487;56;21622;-35
2023/06/21 01:32:06;;;;;;;18.33;16.62;;;25.00;68.70;;;;;;4615355;60;21491;-36
2023/06/21 01:37:08;;;;;;;18.02;16.33;;;24.90;68.60;;;;;;4614818;60;21323;-35
2023/06/21 01:42:09;;;;;;;18.40;16.70;;;24.90;68.60;;;;;;4615672;59;21897;-37
2023/06/21 01:47:11;;;;;;;18.30;16.60;;;24.90;68.60;;;;;;4631999;55;21533;-38
2023/06/21 01:52:12;;;;;;;17.80;16.12;;;24.90;68.60;;;;;;4639500;56;21358;-37
2023/06/21 01:57:14;;;;;;;17.75;16.15;;;24.90;68.60;;;;;;4629547;56;21053;-38
2023/06/21 02:02:18;;;;;;;19.10;17.30;;;24.90;68.60;;;;;;4636874;56;21037;-38
2023/06/21 02:07:19;;;;;;;17.77;16.17;;;24.90;68.60;;;;;;4632230;56;21587;-39
2023/06/21 02:12:21;;;;;;;17.73;16.12;;;24.90;68.60;;;;;;4615542;60;21025;-36
2023/06/21 02:17:22;;;;;;;18.60;16.85;;;24.90;68.60;;;;;;4641555;56;21045;-37
2023/06/21 02:22:23;;;;;;;17.33;15.73;;;24.90;68.60;;;;;;4647721;55;21025;-36
2023/06/21 02:27:24;;;;;;;17.52;15.93;;;24.90;68.70;;;;;;4643353;55;21500;-37
2023/06/21 02:32:25;;;;;;;18.02;16.40;;;25.00;68.70;;;;;;4657377;55;21579;-36
2023/06/21 02:37:30;;;;;;;18.87;17.17;;;24.90;68.60;;;;;;4720994;55;21591;-35
2023/06/21 02:42:32;;;;;;;17.60;16.00;;;24.90;68.70;;;;;;4630037;56;21060;-37
2023/06/21 02:47:33;;;;;;;17.17;15.57;;;24.90;68.60;;;;;;4708482;55;21651;-36
2023/06/21 02:52:34;;;;;;;18.23;16.62;;;24.90;68.60;;;;;;4615889;60;21025;-37
2023/06/21 02:57:35;;;;;;;18.42;16.70;;;24.90;68.70;;;;;;4615389;56;21599;-33
2023/06/21 03:02:36;;;;;;;16.83;15.32;;;24.90;68.30;;;;;;4654674;56;21041;-36
2023/06/21 03:07:37;;;;;;;17.45;15.85;;;24.90;68.60;;;;;;4615779;59;21057;-36
2023/06/21 03:12:42;;;;;;;17.20;15.50;;;24.90;68.60;;;;;;4649386;56;21033;-36
2023/06/21 03:17:43;;;;;;;17.12;15.63;;;24.90;68.60;;;;;;4614822;60;21029;-38
2023/06/21 03:22:45;;;;;;;17.20;15.68;;;24.90;68.60;;;;;;4635531;56;21491;-35
2023/06/21 03:27:47;;;;;;;17.62;16.02;;;24.90;68.70;;;;;;4615899;58;21017;-34
2023/06/21 03:32:48;;;;;;;17.12;15.52;;;24.90;68.70;;;;;;4703216;55;21527;-34
2023/06/21 03:37:50;;;;;;;16.90;15.40;;;24.90;68.60;;;;;;4656661;55;21049;-35
2023/06/21 03:42:51;;;;;;;17.00;15.32;;;24.90;68.70;;;;;;4615925;59;21867;-37
2023/06/21 03:47:52;;;;;;;17.30;15.80;;;24.90;68.60;;;;;;4704941;56;21343;-37
2023/06/21 03:52:52;;;;;;;16.80;15.30;;;24.90;68.60;;;;;;4671662;55;21093;-35
2023/06/21 03:57:53;;;;;;;16.27;14.77;;;24.90;68.70;;;;;;4628310;55;21148;-37
2023/06/21 04:02:54;;;;;;;17.40;15.82;;;24.90;68.60;;;;;;4667077;56;21037;-36
2023/06/21 04:07:55;;;;;;;16.67;15.18;;;24.90;68.60;;;;;;4622291;55;21503;-37
2023/06/21 04:12:56;;;;;;;17.10;15.60;;;24.90;68.60;;;;;;4661224;55;21583;-35
2023/06/21 04:17:57;;;;;;;16.23;14.82;;;24.90;68.60;;;;;;4697941;55;21021;-36
2023/06/21 04:22:58;;;;;;;16.77;15.23;;;24.90;68.60;;;;;;4615846;59;21033;-37
2023/06/21 04:27:58;;;;;;;16.83;15.15;;;24.90;68.60;;;;;;4615845;59;21025;-38
2023/06/21 04:32:59;;;;;;;16.65;15.15;;;24.90;68.50;;;;;;4670895;55;21041;-36
2023/06/21 04:38:00;;;;;;;16.60;15.00;;;24.90;68.70;;;;;;4801587;56;21100;-35
2023/06/21 04:43:03;;;;;;;17.17;15.65;;;24.90;68.50;;;;;;4704901;56;21033;-37
2023/06/21 04:48:04;;;;;;;17.02;15.45;;;24.90;68.50;;;;;;4615775;60;21468;-37
2023/06/21 04:53:05;;;;;;;16.90;15.40;;;24.90;68.50;;;;;;4632231;55;22161;-38
2023/06/21 04:58:08;;;;;;;16.37;14.87;;;24.90;68.50;;;;;;4631891;55;21085;-36
2023/06/21 05:03:09;;;;;;;17.02;15.48;;;24.90;68.50;;;;;;4629837;55;21491;-40
2023/06/21 05:08:10;;;;;;;17.50;15.93;;;24.90;68.50;;;;;;4704140;55;21053;-40
2023/06/21 05:13:11;;;;;;;17.37;15.73;;;24.90;68.50;;;;;;4631661;56;21509;-37
2023/06/21 05:18:12;;;;;;;16.70;15.20;;;24.90;68.50;;;;;;4614904;55;21633;-36
2023/06/21 05:23:14;;;;;;;17.08;15.38;;;24.90;68.50;;;;;;4691742;56;21113;-32
2023/06/21 05:28:14;;;;;;;16.37;14.87;;;24.90;68.50;;;;;;4661320;56;21174;-39
2023/06/21 05:33:16;;;;;;;16.50;15.00;;;24.90;68.50;;;;;;4615534;60;21538;-40
2023/06/21 05:38:17;;;;;;;16.92;15.32;;;24.90;68.50;;;;;;4615017;55;21555;-36
2023/06/21 05:43:17;;;;;;;16.98;15.40;;;24.90;68.50;;;;;;4615556;57;21045;-33
2023/06/21 05:48:20;;;;;;;17.40;15.82;;;24.90;68.50;;;;;;4756574;56;21033;-37
2023/06/21 05:53:20;;;;;;;16.58;15.07;;;24.90;68.50;;;;;;4615742;59;21097;-39
2023/06/21 05:58:22;;;;;;;17.15;15.55;;;24.90;68.50;;;;;;4676398;55;21084;-38
2023/06/21 06:03:24;;;;;;;17.87;16.17;;;24.90;68.60;;;;;;4644414;55;21491;-37
2023/06/21 06:08:25;;;;;;;16.95;15.35;;;24.90;68.50;;;;;;4651025;56;21560;-37
2023/06/21 06:13:28;;;;;;;16.17;14.60;;;24.90;68.50;;;;;;4731793;55;21093;-37
2023/06/21 06:18:28;;;;;;;16.62;15.05;;;24.90;68.50;;;;;;4616333;56;21492;-37
2023/06/21 06:23:29;;;;;;;17.08;15.38;;;24.90;68.50;;;;;;4615493;59;21126;-34
2023/06/21 06:28:30;;;;;;;16.73;15.23;;;25.00;68.60;;;;;;4615493;59;21586;-37
2023/06/21 06:33:31;;;;;;;17.52;15.93;;;24.90;68.50;;;;;;4615280;60;21030;-37
2023/06/21 06:38:32;;;;;;;17.35;15.73;;;24.90;68.60;;;;;;4611472;59;22274;-37
2023/06/21 06:43:34;;;;;;;17.08;15.50;;;24.90;68.50;;;;;;4612963;59;21085;-35
2023/06/21 06:48:34;;;;;;;16.55;15.07;;;24.90;68.50;;;;;;4623343;56;21056;-36
2023/06/21 06:53:35;;;;;;;17.20;15.60;;;24.90;68.50;;;;;;4623229;55;21009;-34
2023/06/21 06:58:36;;;;;;;16.12;14.73;;;24.90;68.50;;;;;;4613731;59;21104;-40
2023/06/21 07:03:37;;;;;;;16.37;14.85;;;24.90;68.50;;;;;;4614201;56;21583;-38
2023/06/21 07:08:42;;;;;;;16.77;15.25;;;25.00;68.50;;;;;;4614306;55;21444;-35
2023/06/21 07:13:44;;;;;;;16.98;15.48;;;25.00;69.20;;;;;;4669219;55;21488;-37
2023/06/21 07:18:45;;;;;;;16.45;14.95;;;25.00;68.50;;;;;;4614325;59;21515;-36
2023/06/21 07:23:48;;;;;;;16.23;14.82;;;25.00;68.50;;;;;;4612398;55;21041;-35
2023/06/21 07:28:49;;;;;;;16.60;15.15;;;25.00;68.50;;;;;;4631812;56;21539;-37
2023/06/21 07:33:53;;;;;;;16.08;14.68;;;25.00;68.50;;;;;;4623005;55;21060;-37
2023/06/21 07:38:54;;;;;;;16.75;15.25;;;25.00;68.50;;;;;;4708318;56;21045;-40
2023/06/21 07:43:55;;;;;;;15.52;14.05;;;25.00;68.50;;;;;;4615631;60;21025;-38
2023/06/21 07:48:56;;;;;;;16.42;14.93;;;25.00;68.50;;;;;;4650335;55;21017;-38
2023/06/21 07:53:56;;;;;;;16.50;15.00;;;25.00;68.50;;;;;;4615803;60;21559;-37
2023/06/21 07:58:57;;;;;;;16.02;14.52;;;25.00;68.50;;;;;;4613838;59;21113;-35
2023/06/21 08:04:00;;;;;;;16.15;14.57;;;25.10;68.50;;;;;;4661815;55;21170;-36
2023/06/21 08:09:00;;;;;;;16.20;14.70;;;25.10;68.60;;;;;;4634697;55;21506;-38
2023/06/21 08:14:01;;;;;;;16.15;14.60;;;25.20;68.80;;;;;;4634109;55;21029;-36
2023/06/21 08:19:03;;;;;;;16.98;15.38;;;25.30;69.00;;;;;;4614026;55;21929;-33
2023/06/21 08:24:04;;;;;;;16.15;14.73;;;25.30;68.80;;;;;;4633036;55;21487;-37
2023/06/21 08:29:05;;;;;;;16.92;15.43;;;25.40;68.80;;;;;;4654496;56;21049;-35
2023/06/21 08:34:06;;;;;;;16.50;15.00;;;25.40;69.00;;;;;;4629546;55;21077;-37
2023/06/21 08:39:07;;;;;;;17.27;15.68;;;25.40;69.50;;;;;;4638054;55;21058;-38
2023/06/21 08:44:08;;;;;;;17.05;15.40;;;25.50;69.10;;;;;;4614294;60;21059;-35
2023/06/21 08:49:16;;;;;;;17.20;15.60;;;25.50;68.90;;;;;;4613603;59;20989;-34
2023/06/21 08:54:23;;;;;;;18.15;16.50;;;25.50;69.00;;;;;;4614203;60;21583;-34
2023/06/21 08:59:30;;;;;;;;;;;25.50;69.30;;;;;;4667967;56;21048;-35
2023/06/21 09:04:38;;;;;;;17.23;15.70;;;25.50;69.40;;;;;;4653144;55;20095;-36
2023/06/21 09:09:40;;;;;;;17.20;15.60;;;25.50;69.20;;;;;;4624145;56;21021;-36
2023/06/21 09:14:42;;;;;;;16.42;14.93;;;25.60;69.40;;;;;;4622382;56;21572;-35
2023/06/21 09:19:43;;;;;;;17.50;15.90;;;25.50;69.60;;;;;;4617344;56;21016;-34
2023/06/21 09:24:44;;;;;;;18.30;16.40;;;25.50;70.00;;;;;;4622761;56;21618;-34
2023/06/21 09:29:45;;;;;;;18.17;16.42;;;25.50;70.00;;;;;;4611276;57;21515;-36
2023/06/21 09:34:46;;;;;;;18.75;16.85;;;25.50;70.10;;;;;;4635080;55;21093;-37
2023/06/21 09:39:54;;;;;;;18.33;16.52;;;25.40;70.10;;;;;;4616264;55;21582;-34
2023/06/21 09:44:56;;;;;;;19.20;17.48;;;25.40;70.20;;;;;;4614345;55;21926;-35
2023/06/21 09:49:57;;;;;;;18.37;16.67;;;25.30;70.20;;;;;;4614289;60;21036;-37
2023/06/21 09:54:58;;;;;;;18.37;16.67;;;25.40;70.40;;;;;;4643644;55;22237;-36
2023/06/21 10:00:00;;;;;;;18.92;16.98;;;25.30;70.20;;;;;;4648812;56;21618;-36
2023/06/21 10:05:01;;;;;;;19.77;17.90;;;25.30;70.20;;;;;;4639344;55;21097;-35
2023/06/21 10:10:09;;;;;;;18.58;16.87;;;25.30;70.20;;;;;;4632984;55;21104;-37
2023/06/21 10:15:13;;;;;;;20.35;18.25;;;25.30;70.20;;;;;;4636022;56;21125;-35
2023/06/21 10:20:15;;;;;;;19.27;17.45;;;25.30;70.20;;;;;;4659607;56;21066;-33
2023/06/21 10:25:19;;;;;;;18.05;16.35;;;25.30;70.10;;;;;;4614461;57;21005;-30
2023/06/21 10:30:22;;;;;;;19.33;17.35;;;25.30;70.10;;;;;;4656381;56;21450;-34
2023/06/21 10:35:27;;;;;;;19.95;18.05;;;25.30;70.00;;;;;;4626364;56;21675;-35
2023/06/21 10:40:29;;;;;;;20.20;18.20;;;25.30;70.00;;;;;;4633760;56;21092;-36
2023/06/21 10:45:33;;;;;;;20.17;18.27;;;25.30;70.00;;;;;;4621721;56;21026;-36
2023/06/21 10:50:34;;;;;;;19.17;17.25;;;25.30;70.00;;;;;;4626458;56;21494;-36
2023/06/21 10:55:39;;;;;;;19.20;17.40;;;25.30;70.00;;;;;;4620349;55;21029;-36
2023/06/21 11:00:44;;;;;;;19.65;17.85;;;25.30;70.00;;;;;;4650566;56;21579;-34
2023/06/21 11:05:45;;;;;;;20.30;18.40;;;25.30;70.10;;;;;;4614948;56;22173;-38
2023/06/21 11:10:50;;;;;;;20.05;18.25;;;25.30;69.90;;;;;;4614366;60;21117;-34
2023/06/21 11:15:51;;;;;;;20.62;18.62;;;25.30;69.90;;;;;;4616081;56;21045;-37
2023/06/21 11:20:57;;;;;;;20.98;18.92;;;25.30;69.90;;;;;;4614737;59;21487;-37
2023/06/21 11:26:50;;;;;;;21.27;19.17;;;25.30;69.80;;;;;;4616085;57;21028;-36
2023/06/21 11:32:15;;;;;;;20.92;18.92;;;25.40;69.90;;;;;;4615663;57;21026;-39
2023/06/21 11:37:40;;;;;;;20.88;18.98;;;25.30;69.80;;;;;;4615898;60;21203;-36
2023/06/21 11:42:49;;;;;;;21.90;19.77;;;25.30;69.80;;;;;;4615961;56;21195;-38
2023/06/21 11:48:00;;;;;;;21.77;19.67;;;25.30;70.20;;;;;;4659945;56;21021;-35
2023/06/21 11:53:36;;;;;;;20.35;18.45;;;25.40;69.70;;;;;;4615386;60;21029;-39
2023/06/21 11:58:36;;;;;;;20.48;18.42;;;25.40;69.70;;;;;;4660050;56;21085;-38
2023/06/21 12:03:37;;;;;;;20.98;19.08;;;25.30;69.70;;;;;;4615610;59;21068;-35
2023/06/21 12:08:39;;;;;;;22.15;19.95;;;25.40;69.70;;;;;;4615573;60;21582;-37
2023/06/21 12:13:40;;;;;;;21.35;19.25;;;25.40;69.70;;;;;;4615629;59;21484;-39
2023/06/21 12:18:40;;;;;;;20.08;18.10;;;25.40;69.60;;;;;;4638102;55;21113;-35
2023/06/21 12:23:42;;;;;;;21.02;19.02;;;25.40;69.60;;;;;;4617036;55;21555;-36
2023/06/21 12:28:46;;;;;;;21.58;19.48;;;25.40;69.60;;;;;;4692920;55;21479;-36
2023/06/21 12:34:00;;;;;;;21.17;19.15;;;25.40;69.60;;;;;;4687365;56;21037;-37
2023/06/21 12:39:04;;;;;;;22.65;20.45;;;25.40;69.60;;;;;;4733879;56;21603;-36
2023/06/21 12:44:08;;;;;;;22.27;20.17;;;25.40;69.50;;;;;;4654081;56;21029;-34
2023/06/21 12:49:11;;;;;;;22.80;20.65;;;25.40;69.50;;;;;;4649086;56;21045;-37
2023/06/21 12:54:20;;;;;;;22.40;20.23;;;25.40;69.50;;;;;;4615745;60;21518;-39
2023/06/21 12:59:21;;;;;;;21.85;19.62;;;25.40;69.40;;;;;;4627179;56;21164;-34
2023/06/21 13:04:21;;;;;;;21.40;19.20;;;25.40;69.40;;;;;;4651973;55;21499;-38
2023/06/21 13:09:22;;;;;;;21.87;19.87;;;25.40;69.40;;;;;;4700424;55;21013;-37
2023/06/21 13:14:23;;;;;;;21.80;19.60;;;25.40;69.40;;;;;;4655140;55;21515;-36
2023/06/21 13:19:25;;;;;;;23.30;20.98;;;25.40;69.40;;;;;;4745033;56;21163;-37
2023/06/21 13:24:25;;;;;;;22.17;19.98;;;25.40;69.40;;;;;;4645235;55;21502;-37
2023/06/21 13:29:26;;;;;;;22.83;20.58;;;25.40;69.30;;;;;;4669867;55;21077;-36
2023/06/21 13:34:27;;;;;;;22.77;20.55;;;25.40;69.40;;;;;;4625131;55;21683;-37
2023/06/21 13:39:28;;;;;;;24.02;21.67;;;25.40;69.30;;;;;;4631714;55;21113;-35
2023/06/21 13:44:29;;;;;;;22.98;20.77;;;25.40;69.30;;;;;;4647845;55;21526;-38
2023/06/21 13:49:30;;;;;;;22.23;20.12;;;25.40;69.30;;;;;;4681964;55;21085;-33
2023/06/21 13:54:31;;;;;;;22.83;20.62;;;25.40;69.30;;;;;;4615916;59;21582;-37
2023/06/21 13:59:34;;;;;;;22.48;20.27;;;25.40;69.20;;;;;;4667458;55;21718;-38
2023/06/21 14:04:36;;;;;;;21.10;19.10;;;25.40;69.20;;;;;;4635814;55;21682;-39
2023/06/21 14:09:42;;;;;;;22.67;20.48;;;25.50;69.30;;;;;;4748588;56;21398;-37
2023/06/21 14:14:43;;;;;;;23.52;21.00;;;25.40;69.20;;;;;;4615793;60;21475;-38
2023/06/21 14:19:44;;;;;;;22.58;20.33;;;25.40;69.20;;;;;;4617206;55;21093;-37
2023/06/21 14:24:46;;;;;;;21.33;18.45;;;25.50;69.30;;;;;;4759758;55;21133;-39
2023/06/21 14:29:47;;;;;;;22.00;19.87;;;25.50;69.20;;;;;;4617942;55;21033;-36
2023/06/21 14:34:48;;;;;;;22.10;19.87;;;25.50;69.20;;;;;;4648829;55;21507;-38
2023/06/21 14:39:49;;;;;;;24.00;21.55;;;25.50;69.20;;;;;;4614246;60;21089;-39
2023/06/21 14:44:50;;;;;;;22.80;20.62;;;25.50;69.20;;;;;;4675552;55;21578;-38
2023/06/21 14:49:54;;;;;;;22.27;20.17;;;25.50;69.20;;;;;;4664785;55;21675;-35
2023/06/21 14:54:54;;;;;;;22.67;20.42;;;25.50;69.20;;;;;;4615657;60;21535;-36
2023/06/21 14:59:56;;;;;;;23.73;21.52;;;25.50;69.10;;;;;;4617246;55;21057;-36
2023/06/21 15:04:57;;;;;;;21.70;19.60;;;25.50;69.10;;;;;;4615654;59;21503;-38
2023/06/21 15:09:58;;;;;;;22.58;20.45;;;25.50;69.10;;;;;;4619200;55;21122;-35
2023/06/21 15:14:58;;;;;;;22.15;19.92;;;25.50;69.10;;;;;;4615594;59;21085;-36
2023/06/21 15:20:03;;;;;;;22.70;20.50;;;25.50;69.10;;;;;;4622715;55;21033;-36
2023/06/21 15:25:04;;;;;;;22.60;20.50;;;25.50;69.00;;;;;;4615353;60;21038;-38
2023/06/21 15:30:06;;;;;;;22.45;20.15;;;25.50;69.00;;;;;;4695336;56;21101;-37
2023/06/21 15:35:09;;;;;;;23.35;21.15;;;25.50;69.00;;;;;;4686296;56;21202;-39
2023/06/21 15:40:11;;;;;;;22.48;20.37;;;25.50;69.10;;;;;;4629488;55;21073;-37
2023/06/21 15:45:12;;;;;;;23.08;20.75;;;25.50;69.00;;;;;;4647468;55;21508;-36
2023/06/21 15:50:13;;;;;;;24.27;21.95;;;25.50;68.90;;;;;;4615662;60;21134;-38
2023/06/21 15:55:14;;;;;;;22.73;20.52;;;25.50;68.90;;;;;;4615931;60;21085;-38
2023/06/21 16:00:15;;;;;;;22.90;20.77;;;25.50;68.90;;;;;;4637587;56;21495;-35
2023/06/21 16:05:16;;;;;;;22.10;19.83;;;25.50;68.90;;;;;;4629349;56;21024;-38
2023/06/21 16:10:17;;;;;;;20.50;18.55;;;25.50;69.00;;;;;;4633666;55;21658;-37
2023/06/21 16:15:18;;;;;;;22.55;20.35;;;25.50;68.90;;;;;;4636093;55;21077;-35
2023/06/21 16:20:22;;;;;;;22.17;20.00;;;25.50;68.90;;;;;;4626364;56;21146;-36
2023/06/21 16:25:23;;;;;;;22.35;20.20;;;25.50;69.60;;;;;;4679166;55;21037;-38
2023/06/21 16:30:24;;;;;;;22.87;20.67;;;25.50;68.80;;;;;;4634985;55;21503;-36
2023/06/21 16:35:24;;;;;;;21.65;19.55;;;25.50;68.80;;;;;;4623705;55;21638;-37
2023/06/21 16:40:25;;;;;;;21.73;19.73;;;25.50;68.80;;;;;;4614511;59;21101;-39
2023/06/21 16:45:26;;;;;;;21.20;19.10;;;25.60;68.80;;;;;;4694152;55;21493;-37
2023/06/21 16:50:27;;;;;;;21.02;19.05;;;25.50;68.90;;;;;;4615520;60;21029;-38
2023/06/21 16:55:28;;;;;;;21.60;19.50;;;25.50;68.80;;;;;;4661505;55;21530;-38
2023/06/21 17:00:29;;;;;;;20.92;18.85;;;25.50;68.80;;;;;;4615007;59;21053;-36
2023/06/21 17:05:30;;;;;;;22.45;20.20;;;25.60;68.90;;;;;;4615419;60;21514;-36
2023/06/21 17:10:31;;;;;;;22.48;20.27;;;25.60;68.80;;;;;;4624813;55;21029;-33
2023/06/21 17:15:32;;;;;;;21.15;19.15;;;25.60;68.90;;;;;;4647630;56;22213;-38
2023/06/21 17:20:33;;;;;;;22.30;20.15;;;25.60;68.80;;;;;;4615333;59;21511;-36
2023/06/21 17:25:35;;;;;;;21.42;19.33;;;25.60;68.80;;;;;;4649176;56;21101;-36
2023/06/21 17:30:36;;;;;;;21.10;19.15;;;25.60;68.80;;;;;;4615551;60;21358;-36
2023/06/21 17:35:36;;;;;;;23.15;20.95;;;25.60;68.40;;;;;;4615419;59;21063;-36
2023/06/21 17:40:37;;;;;;;22.33;20.08;;;25.60;68.90;;;;;;4622167;55;21097;-38
2023/06/21 17:45:38;;;;;;;21.35;19.25;;;25.60;68.90;;;;;;4662503;55;21080;-39
2023/06/21 17:50:39;;;;;;;21.77;19.55;;;25.60;68.90;;;;;;4615659;59;21514;-36
2023/06/21 17:55:41;;;;;;;22.50;20.30;;;25.60;68.90;;;;;;4615187;59;21037;-37
2023/06/21 18:00:42;;;;;;;21.55;19.45;;;25.60;68.90;;;;;;4615010;60;22029;-37
2023/06/21 18:05:42;;;;;;;23.20;20.90;;;25.60;69.00;;;;;;4631266;55;21033;-36
2023/06/21 18:10:43;;;;;;;22.27;20.17;;;25.60;68.90;;;;;;4615459;56;21607;-39
2023/06/21 18:15:44;;;;;;;21.85;19.80;;;25.60;69.00;;;;;;4713862;55;21041;-34
2023/06/21 18:20:45;;;;;;;21.30;19.20;;;25.60;69.00;;;;;;4651362;55;21009;-37
2023/06/21 18:25:46;;;;;;;21.95;19.75;;;25.60;69.10;;;;;;4641716;56;21523;-37
2023/06/21 18:30:47;;;;;;;22.75;20.30;;;25.60;69.10;;;;;;4615083;56;21001;-38
2023/06/21 18:35:48;;;;;;;22.30;20.10;;;25.60;69.10;;;;;;4614870;60;21527;-40
2023/06/21 18:40:49;;;;;;;23.62;21.33;;;25.60;69.20;;;;;;4650571;55;21060;-38
2023/06/21 18:45:49;;;;;;;22.65;20.35;;;25.60;69.30;;;;;;4671303;55;21097;-36
2023/06/21 18:50:50;;;;;;;22.70;20.42;;;25.60;69.30;;;;;;4657294;56;21029;-37
2023/06/21 18:55:51;;;;;;;22.30;20.00;;;25.60;69.30;;;;;;4627790;55;21527;-37
2023/06/21 19:00:52;;;;;;;22.23;20.12;;;25.60;69.30;;;;;;4618291;55;21587;-37
2023/06/21 19:05:54;;;;;;;21.90;19.80;;;25.60;69.30;;;;;;4654884;55;21065;-36
2023/06/21 19:10:55;;;;;;;21.73;19.62;;;25.60;69.40;;;;;;4622712;55;21500;-38
2023/06/21 19:15:56;;;;;;;23.60;21.25;;;25.60;69.40;;;;;;4631641;55;21033;-40
2023/06/21 19:20:56;;;;;;;22.02;19.92;;;25.60;69.40;;;;;;4659326;55;21555;-38
2023/06/21 19:25:57;;;;;;;21.92;19.87;;;25.60;69.50;;;;;;4615663;59;21081;-35
2023/06/21 19:31:01;;;;;;;22.37;20.20;;;25.60;69.50;;;;;;4625030;55;21017;-36
2023/06/21 19:36:02;;;;;;;21.77;19.60;;;25.60;69.50;;;;;;4646265;55;21097;-36
2023/06/21 19:41:03;;;;;;;22.58;20.33;;;25.60;69.60;;;;;;4648819;56;21098;-34
2023/06/21 19:46:07;;;;;;;20.75;18.75;;;25.60;69.60;;;;;;4639197;55;21069;-37
2023/06/21 19:51:08;;;;;;;22.37;20.30;;;25.60;69.70;;;;;;4615940;60;21140;-39
2023/06/21 19:56:08;;;;;;;22.27;20.08;;;25.60;69.70;;;;;;4690476;55;21851;-39
2023/06/21 20:01:09;;;;;;;24.42;21.92;;;25.60;69.80;;;;;;4647849;55;21125;-36
2023/06/21 20:06:10;;;;;;;23.20;20.95;;;25.60;69.80;;;;;;4625906;55;21033;-37
2023/06/21 20:11:11;;;;;;;22.50;20.35;;;25.60;69.80;;;;;;4615816;60;21495;-38
2023/06/21 20:16:12;;;;;;;23.20;20.88;;;25.60;69.80;;;;;;4707089;55;21049;-38
2023/06/21 20:21:13;;;;;;;22.80;20.60;;;25.60;69.90;;;;;;4700049;55;21520;-38
2023/06/21 20:26:13;;;;;;;22.27;20.17;;;25.60;69.90;;;;;;4615324;59;21021;-36
2023/06/21 20:31:14;;;;;;;22.87;20.67;;;25.60;70.00;;;;;;4615666;60;21507;-37
2023/06/21 20:36:15;;;;;;;22.75;20.65;;;25.60;70.00;;;;;;4628057;56;21081;-38
2023/06/21 20:41:16;;;;;;;23.60;21.35;;;25.60;70.00;;;;;;4614431;59;21113;-35
2023/06/21 20:46:17;;;;;;;22.95;20.75;;;25.60;70.00;;;;;;4696181;56;21511;-36
2023/06/21 20:51:18;;;;;;;22.52;20.42;;;25.60;70.00;;;;;;4628975;55;21005;-38
2023/06/21 20:56:19;;;;;;;23.20;20.95;;;25.60;70.00;;;;;;4620763;55;21606;-36
2023/06/21 21:01:21;;;;;;;22.23;20.02;;;25.60;70.10;;;;;;4640743;55;21037;-39
2023/06/21 21:06:22;;;;;;;23.42;21.27;;;25.60;70.10;;;;;;4675895;56;21025;-35
2023/06/21 21:11:23;;;;;;;21.75;19.65;;;25.60;70.10;;;;;;4629365;56;21495;-35
2023/06/21 21:16:24;;;;;;;23.27;20.98;;;25.60;70.30;;;;;;4653257;55;21495;-37
2023/06/21 21:21:25;;;;;;;22.80;20.60;;;25.60;70.10;;;;;;4682130;55;21029;-38
2023/06/21 21:26:26;;;;;;;22.00;19.90;;;25.60;70.20;;;;;;4730832;56;21081;-40
2023/06/21 21:31:27;;;;;;;21.10;19.17;;;25.60;70.80;;;;;;4672988;56;21578;-37
2023/06/21 21:36:28;;;;;;;21.95;19.80;;;25.60;70.20;;;;;;4673882;55;21045;-37
2023/06/21 21:41:29;;;;;;;22.20;20.10;;;25.60;70.20;;;;;;4644034;55;21547;-36
2023/06/21 21:46:30;;;;;;;21.85;19.95;;;25.60;70.20;;;;;;4615295;59;21026;-37
2023/06/21 21:51:31;;;;;;;22.60;20.50;;;25.60;70.20;;;;;;4615841;60;21499;-37
2023/06/21 21:56:31;;;;;;;24.10;21.80;;;25.60;70.20;;;;;;4615163;59;21506;-35
2023/06/21 22:01:33;;;;;;;22.50;20.40;;;25.60;70.20;;;;;;4708107;55;21069;-38
2023/06/21 22:06:34;;;;;;;22.37;20.27;;;25.60;70.30;;;;;;4720635;55;21444;-36
2023/06/21 22:11:35;;;;;;;21.67;19.58;;;25.60;70.20;;;;;;4667636;55;21013;-37
2023/06/21 22:16:35;;;;;;;22.55;20.45;;;25.60;70.30;;;;;;4671304;55;21454;-35
2023/06/21 22:21:36;;;;;;;21.70;19.55;;;25.60;70.20;;;;;;4615700;59;21017;-37
2023/06/21 22:26:37;;;;;;;22.60;20.50;;;25.60;70.30;;;;;;4668613;55;21132;-36
2023/06/21 22:31:39;;;;;;;22.27;20.08;;;25.60;70.30;;;;;;4627312;55;21487;-39
2023/06/21 22:36:40;;;;;;;23.20;21.08;;;25.60;70.30;;;;;;4626930;55;21519;-36
2023/06/21 22:41:42;;;;;;;21.52;19.45;;;25.60;70.30;;;;;;4615160;60;21383;-33
2023/06/21 22:46:42;;;;;;;21.48;19.48;;;25.60;70.30;;;;;;4682471;56;21085;-35
2023/06/21 22:51:43;;;;;;;22.10;20.10;;;25.60;70.30;;;;;;4889762;55;21539;-37
2023/06/21 22:56:45;;;;;;;20.55;18.65;;;25.60;70.30;;;;;;4656815;56;21151;-35
2023/06/21 23:01:46;;;;;;;21.62;19.62;;;25.70;70.40;;;;;;4620958;56;21016;-36
2023/06/21 23:06:47;;;;;;;22.52;20.50;;;25.70;70.50;;;;;;4710359;55;21092;-33
2023/06/21 23:11:48;;;;;;;22.25;20.25;;;25.70;70.40;;;;;;4615891;56;21543;-35
2023/06/21 23:16:49;;;;;;;21.62;19.65;;;25.70;70.40;;;;;;4719080;55;21053;-38
2023/06/21 23:21:50;;;;;;;21.60;19.60;;;25.60;70.40;;;;;;4748289;56;21495;-33
2023/06/21 23:26:53;;;;;;;22.70;20.60;;;25.60;70.30;;;;;;4688291;55;21498;-37
2023/06/21 23:31:54;;;;;;;21.30;19.30;;;25.70;70.40;;;;;;4654075;55;21567;-36
2023/06/21 23:36:58;;;;;;;21.37;19.37;;;25.70;70.50;;;;;;4615547;59;21685;-33
2023/06/21 23:42:00;;;;;;;22.83;20.73;;;25.70;70.50;;;;;;4658923;55;21666;-37
2023/06/21 23:47:00;;;;;;;21.20;19.20;;;25.70;70.50;;;;;;4674295;55;21507;-37
2023/06/21 23:52:01;;;;;;;21.25;19.35;;;25.70;70.50;;;;;;4618059;55;21021;-36
2023/06/21 23:57:03;;;;;;;21.80;19.80;;;25.70;70.50;;;;;;4727946;55;21503;-39
